Galva, IL

5:21 PM CDT on July 07, 2015 (GMT -0500)
APRSWXNET | | Change Station
CLOSE
Current Station
Personal Weather Station
Location: Kewanee, IL
Elevation: 853 ft
Nearby Weather Stations

Elev 853 ft 41.20 °N, 89.96 °W | Updated 41 minutes ago

Mostly Cloudy
Mostly Cloudy
72 °F
Feels Like 75 °F
N
10
Wind Variable Wind from NNE
Gusts 15.0 mph

Today
High -- | Low -- °F
--% Chance of Precip.
Yesterday
High -- | Low -- °F
Precip. -- in
5:34 AM 8:35 PM
Waning Gibbous, 60% visible
Pressure 30.05 in
Visibility 7.0 miles
Clouds Scattered Clouds 3800 ft
Mostly Cloudy 4500 ft
Mostly Cloudy 5000 ft
Heat Index 75 °F
Dew Point 60 °F
Humidity 66%
Rainfall in
Snow Depth Not available.
UV 3 out of 12
Pollen 1.60 out of 12
Air Quality Not available.
Flu Activity Not available.
METAR KGBG 072155Z AUTO 03010G15KT 7SM SCT038 BKN045 BKN050 23/15 A3005 RMK AO2 T02270152

More Conditions Fewer Conditions

Pressure 30.05 in
Visibility 7.0 miles
Clouds Scattered Clouds 3800 ft
Mostly Cloudy 4500 ft
Mostly Cloudy 5000 ft
Heat Index 75 °F
Dew Point 60 °F
Humidity 66%
Rainfall in
Snow Depth Not available.
UV 3 out of 12
Pollen 1.60 out of 12
Air Quality Not available.
Flu Activity Not available.
METAR KGBG 072155Z AUTO 03010G15KT 7SM SCT038 BKN045 BKN050 23/15 A3005 RMK AO2 T02270152

More Conditions Fewer Conditions

10-Day Weather Forecast

×

Almanac

Astronomy

Jul. 07, 2015 Rise Set
Actual Time
Civil Twilight
Nautical Twilight
Astronomical Twilight
Moon
Length of Visible Light
Length of Day
Tomorrow will be .
, % of the Moon is Illuminated

Today's Extremes

State Highs State Lows

Community

WunderPhotos

Upload Photos

1,835,938 photos uploaded!

WunderBlogs® & News

Nearby

Air Quality

  Air Quality AQ Index Pollutant
Not available.

Snow Depth

Station Depth Elevation

Earthquake Activity

City Distance Mag. Time & Date
Minimum magnitude displayed is 2.5.

Coastal Water Temperatures

Place Temperature

Stations

Nearby Weather Stations

Station Location Temp. Windchill Dew Point Humidity Wind Precip. Elev Updated Type